Time;durP1;ratioP1;P1;durP2;ratioP2;P2;SDS_P1;SDS_P2;PMS_P1;PMS_P2;Temp;Humidity;BMP_temperature;BMP_pressure;BME280_temperature;BME280_humidity;BME280_pressure;Samples;Min_cycle;Max_cycle;Signal;HPM_P1;HPM_P2
2021/08/02 00:01:03;;;;;;;7.53;7.33;;;24.50;95.80;;;;;;3535915;40;20549;-62
2021/08/02 00:03:36;;;;;;;7.13;6.93;;;24.50;95.80;;;;;;3535430;40;20963;-62
2021/08/02 00:06:09;;;;;;;7.27;7.07;;;24.50;95.80;;;;;;3535186;40;20900;-62
2021/08/02 00:08:36;;;;;;;7.00;6.80;;;24.50;95.80;;;;;;3535630;40;20795;-62
2021/08/02 00:11:04;;;;;;;7.13;6.93;;;24.50;95.80;;;;;;3526417;40;20529;-62
2021/08/02 00:13:33;;;;;;;6.90;6.70;;;24.50;95.80;;;;;;3537032;40;20717;-62
2021/08/02 00:16:03;;;;;;;7.30;7.10;;;24.50;95.80;;;;;;3538290;40;20490;-61
2021/08/02 00:18:31;;;;;;;7.50;7.30;;;24.50;95.80;;;;;;3538971;40;20467;-62
2021/08/02 00:21:01;;;;;;;7.40;7.20;;;24.50;95.80;;;;;;3530164;40;20930;-61
2021/08/02 00:23:30;;;;;;;7.00;6.80;;;24.50;95.80;;;;;;3537688;40;20482;-62
2021/08/02 00:26:05;;;;;;;6.70;6.60;;;24.50;95.80;;;;;;3538316;40;20477;-62
2021/08/02 00:28:34;;;;;;;7.30;7.10;;;24.50;95.80;;;;;;3538253;40;20465;-62
2021/08/02 00:31:02;;;;;;;6.90;6.70;;;24.50;95.80;;;;;;3538849;40;20736;-61
2021/08/02 00:33:29;;;;;;;7.20;7.00;;;24.50;95.80;;;;;;3538232;40;20729;-62
2021/08/02 00:36:02;;;;;;;7.00;6.80;;;24.50;95.80;;;;;;3538197;40;20454;-61
2021/08/02 00:38:35;;;;;;;6.60;6.40;;;24.50;95.80;;;;;;3537467;40;20790;-62
2021/08/02 00:41:21;;;;;;;6.60;6.40;;;24.50;95.80;;;;;;3538148;40;20481;-62
2021/08/02 00:44:39;;;;;;;7.00;6.80;;;24.50;95.80;;;;;;3538318;40;20465;-62
2021/08/02 00:47:12;;;;;;;6.80;6.60;;;24.50;95.80;;;;;;3538811;40;20697;-62
2021/08/02 00:49:48;;;;;;;6.80;6.60;;;24.50;95.80;;;;;;3538908;40;20825;-62
2021/08/02 00:52:16;;;;;;;6.80;6.60;;;24.50;95.80;;;;;;3539586;40;20556;-62
2021/08/02 00:54:46;;;;;;;6.93;6.73;;;24.40;95.80;;;;;;3539198;40;20928;-62
2021/08/02 00:57:17;;;;;;;6.90;6.70;;;24.40;95.80;;;;;;3537328;40;20497;-62
2021/08/02 00:59:45;;;;;;;6.60;6.40;;;24.40;95.80;;;;;;3537640;40;20525;-62
2021/08/02 01:02:21;;;;;;;6.50;6.30;;;24.40;95.80;;;;;;3537308;40;20485;-62
2021/08/02 01:04:50;;;;;;;7.10;6.90;;;24.50;95.80;;;;;;3537660;40;20462;-61
2021/08/02 01:07:19;;;;;;;6.80;6.60;;;24.40;95.80;;;;;;3537060;40;20562;-62
2021/08/02 01:09:51;;;;;;;6.70;6.50;;;24.40;95.80;;;;;;3539088;40;20481;-60
2021/08/02 01:12:22;;;;;;;6.70;6.50;;;24.40;95.80;;;;;;3538159;40;20466;-62
2021/08/02 01:14:50;;;;;;;6.60;6.40;;;24.40;95.80;;;;;;3529252;40;20501;-62
2021/08/02 01:17:18;;;;;;;6.90;6.70;;;24.40;95.80;;;;;;3538238;40;20454;-62
2021/08/02 01:19:47;;;;;;;6.90;6.70;;;24.40;95.80;;;;;;3528984;40;20545;-62
2021/08/02 01:22:21;;;;;;;7.30;7.10;;;24.40;95.70;;;;;;3537602;40;20849;-62
2021/08/02 01:24:48;;;;;;;6.80;6.60;;;24.40;95.70;;;;;;3537878;40;20676;-62
2021/08/02 01:27:45;;;;;;;6.90;6.70;;;24.40;95.70;;;;;;3535488;40;20557;-62
2021/08/02 01:30:23;;;;;;;7.00;6.80;;;24.40;95.80;;;;;;3537334;40;20470;-62
2021/08/02 01:32:58;;;;;;;7.23;7.03;;;24.40;95.70;;;;;;3537148;40;20465;-62
2021/08/02 01:35:26;;;;;;;7.03;6.83;;;24.40;95.70;;;;;;3535724;40;20459;-61
2021/08/02 01:37:57;;;;;;;6.80;6.63;;;24.40;95.70;;;;;;3535319;40;20507;-61
2021/08/02 01:40:27;;;;;;;6.93;6.73;;;24.40;95.80;;;;;;3536877;40;20506;-62
2021/08/02 01:42:54;;;;;;;7.50;7.30;;;24.40;95.80;;;;;;3536940;40;20489;-62
2021/08/02 01:45:25;;;;;;;7.23;7.03;;;24.40;96.10;;;;;;3535696;40;20545;-61
2021/08/02 01:48:04;;;;;;;7.20;7.00;;;24.40;95.70;;;;;;3535683;40;20458;-62
2021/08/02 01:50:43;;;;;;;7.23;7.03;;;24.40;95.80;;;;;;3535584;40;20720;-62
2021/08/02 01:53:24;;;;;;;7.30;7.10;;;24.40;95.80;;;;;;3535560;40;20458;-61
2021/08/02 01:56:01;;;;;;;7.17;6.97;;;24.40;95.80;;;;;;3536175;40;20466;-61
2021/08/02 01:58:34;;;;;;;6.67;6.47;;;24.40;95.80;;;;;;3534766;40;20561;-62
2021/08/02 02:01:03;;;;;;;7.20;7.00;;;24.40;95.80;;;;;;3536235;40;20568;-62
2021/08/02 02:03:37;;;;;;;6.90;6.70;;;24.40;95.70;;;;;;3535702;40;20553;-62
2021/08/02 02:06:16;;;;;;;7.30;7.10;;;24.40;95.80;;;;;;3536085;40;20462;-62
2021/08/02 02:08:55;;;;;;;7.03;6.83;;;24.40;95.80;;;;;;3535209;40;20471;-61
2021/08/02 02:11:35;;;;;;;7.23;7.03;;;24.40;95.80;;;;;;3535443;40;20728;-62
2021/08/02 02:14:17;;;;;;;6.93;6.73;;;24.40;95.70;;;;;;3535959;40;20628;-62
2021/08/02 02:16:50;;;;;;;6.77;6.57;;;24.40;95.70;;;;;;3534984;40;20465;-62
2021/08/02 02:19:22;;;;;;;6.80;6.60;;;24.40;95.80;;;;;;3535779;40;20647;-62
2021/08/02 02:21:52;;;;;;;6.90;6.70;;;24.40;95.80;;;;;;3535311;40;20722;-62
2021/08/02 02:24:23;;;;;;;7.10;6.90;;;24.40;95.80;;;;;;3537073;40;20789;-62
2021/08/02 02:26:51;;;;;;;7.20;7.00;;;24.40;95.80;;;;;;3535333;40;20485;-62
2021/08/02 02:29:20;;;;;;;7.53;7.33;;;24.40;95.80;;;;;;3527230;40;20701;-62
2021/08/02 02:31:49;;;;;;;7.50;7.30;;;24.40;95.80;;;;;;3536853;40;20732;-62
2021/08/02 02:34:20;;;;;;;7.40;7.20;;;24.40;95.80;;;;;;3528166;40;20565;-62
2021/08/02 02:36:50;;;;;;;7.03;6.83;;;24.40;95.80;;;;;;3535174;40;20576;-62
2021/08/02 02:39:20;;;;;;;6.97;6.77;;;24.40;95.80;;;;;;3535877;40;20513;-62
2021/08/02 02:41:50;;;;;;;7.23;7.03;;;24.40;95.70;;;;;;3535880;40;20507;-62
2021/08/02 02:44:22;;;;;;;7.30;7.10;;;24.40;95.80;;;;;;3535257;40;20455;-62
2021/08/02 02:46:50;;;;;;;7.00;6.80;;;24.40;95.70;;;;;;3536567;40;20565;-60
2021/08/02 02:49:19;;;;;;;6.87;6.67;;;24.40;95.70;;;;;;3536720;40;20891;-62
2021/08/02 02:51:50;;;;;;;6.97;6.77;;;24.40;95.80;;;;;;3535919;40;20776;-62
2021/08/02 02:54:19;;;;;;;7.20;7.00;;;24.40;95.80;;;;;;3536282;40;20455;-62
2021/08/02 02:56:54;;;;;;;7.50;7.30;;;24.40;95.70;;;;;;3542522;40;20467;-62
2021/08/02 02:59:21;;;;;;;7.67;7.47;;;24.40;95.80;;;;;;3533575;40;20467;-62
2021/08/02 03:01:51;;;;;;;7.30;7.10;;;24.40;95.70;;;;;;3535511;40;20522;-62
2021/08/02 03:04:29;;;;;;;7.70;7.50;;;24.40;95.70;;;;;;3536536;40;20488;-62
2021/08/02 03:06:59;;;;;;;7.50;7.30;;;24.40;95.70;;;;;;3536408;40;20471;-62
2021/08/02 03:09:30;;;;;;;7.37;7.17;;;24.40;95.70;;;;;;3536347;40;20489;-62
2021/08/02 03:11:59;;;;;;;7.80;7.60;;;24.40;95.70;;;;;;3527751;40;20466;-62
2021/08/02 03:14:26;;;;;;;7.60;7.40;;;24.40;95.70;;;;;;3535724;40;20849;-62
2021/08/02 03:16:54;;;;;;;7.60;7.40;;;24.40;96.10;;;;;;3536248;40;20502;-62
2021/08/02 03:19:21;;;;;;;8.17;7.97;;;24.40;95.70;;;;;;3536074;40;20669;-62
2021/08/02 03:21:48;;;;;;;8.07;7.87;;;24.40;95.70;;;;;;3536636;40;20881;-62
2021/08/02 03:24:21;;;;;;;8.10;7.90;;;24.40;95.70;;;;;;3535691;40;20497;-62
2021/08/02 03:26:54;;;;;;;7.80;7.60;;;24.40;95.70;;;;;;3536209;40;20570;-62
2021/08/02 03:29:29;;;;;;;7.80;7.60;;;24.40;95.80;;;;;;3535670;40;20553;-61
2021/08/02 03:32:01;;;;;;;7.70;7.50;;;24.40;95.70;;;;;;3535092;40;20467;-61
2021/08/02 03:34:33;;;;;;;8.00;7.80;;;24.40;95.70;;;;;;3534300;40;20479;-62
2021/08/02 03:37:04;;;;;;;8.20;8.00;;;24.40;95.80;;;;;;3535086;40;20515;-62
2021/08/02 03:39:32;;;;;;;8.00;7.80;;;24.40;95.70;;;;;;3535320;40;20478;-62
2021/08/02 03:42:01;;;;;;;7.53;7.33;;;24.40;95.70;;;;;;3534727;40;20739;-62
2021/08/02 03:44:31;;;;;;;7.60;7.40;;;24.40;95.70;;;;;;3534174;40;20586;-62
2021/08/02 03:46:59;;;;;;;8.60;8.40;;;24.40;95.70;;;;;;3535094;40;20489;-62
2021/08/02 03:49:26;;;;;;;7.60;7.40;;;24.40;95.70;;;;;;3533610;40;20534;-61
2021/08/02 03:51:57;;;;;;;8.30;8.10;;;24.40;95.70;;;;;;3535767;40;20920;-62
2021/08/02 03:54:26;;;;;;;8.90;8.70;;;24.40;95.70;;;;;;3534774;40;20737;-62
2021/08/02 03:56:55;;;;;;;8.90;8.70;;;24.40;95.70;;;;;;3534110;40;20769;-62
2021/08/02 03:59:23;;;;;;;9.30;9.00;;;24.40;95.70;;;;;;3534696;40;20470;-62
2021/08/02 04:01:52;;;;;;;8.20;8.00;;;24.40;95.70;;;;;;3534753;40;20443;-62
2021/08/02 04:04:19;;;;;;;9.10;8.90;;;24.40;95.70;;;;;;3532650;40;20549;-59
2021/08/02 04:06:47;;;;;;;8.97;8.77;;;24.40;95.70;;;;;;3532173;40;20703;-57
2021/08/02 04:09:14;;;;;;;8.80;8.60;;;24.40;95.70;;;;;;3531400;40;20658;-59
2021/08/02 04:11:43;;;;;;;8.67;8.47;;;24.40;95.80;;;;;;3531120;40;20458;-59
2021/08/02 04:14:11;;;;;;;8.37;8.17;;;24.40;95.70;;;;;;3529596;40;20523;-59
2021/08/02 04:16:39;;;;;;;9.20;8.90;;;24.40;95.70;;;;;;3530410;40;20466;-58
2021/08/02 04:19:07;;;;;;;8.80;8.60;;;24.40;95.70;;;;;;3531157;40;20489;-57
2021/08/02 04:21:35;;;;;;;8.50;8.30;;;24.40;95.70;;;;;;3530217;40;20470;-57
2021/08/02 04:24:03;;;;;;;8.50;8.30;;;24.40;95.70;;;;;;3529126;40;20467;-58
2021/08/02 04:26:31;;;;;;;8.20;8.00;;;24.40;95.70;;;;;;3528783;40;20463;-59
2021/08/02 04:28:58;;;;;;;8.40;8.20;;;24.40;95.70;;;;;;3528712;40;20474;-58
2021/08/02 04:31:27;;;;;;;8.33;8.13;;;24.40;95.70;;;;;;3528748;40;20471;-59
2021/08/02 04:33:55;;;;;;;8.17;7.97;;;24.40;95.70;;;;;;3528997;40;20462;-59
2021/08/02 04:36:24;;;;;;;8.30;8.10;;;24.40;95.70;;;;;;3528422;40;20826;-58
2021/08/02 04:38:52;;;;;;;8.40;8.20;;;24.40;95.70;;;;;;3528032;40;20480;-58
2021/08/02 04:41:19;;;;;;;8.60;8.40;;;24.40;95.70;;;;;;3528822;40;20466;-58
2021/08/02 04:43:46;;;;;;;8.57;8.37;;;24.40;95.70;;;;;;3528943;40;20483;-59
2021/08/02 04:46:13;;;;;;;8.33;8.13;;;24.40;95.70;;;;;;3529598;40;20901;-58
2021/08/02 04:48:40;;;;;;;9.03;8.83;;;24.40;95.70;;;;;;3528632;40;20532;-58
2021/08/02 04:51:08;;;;;;;8.53;8.33;;;24.40;95.70;;;;;;3526345;40;20490;-58
2021/08/02 04:53:36;;;;;;;8.47;8.27;;;24.40;95.70;;;;;;3526550;40;20489;-56
2021/08/02 04:56:04;;;;;;;8.70;8.50;;;24.40;95.70;;;;;;3527064;40;20466;-57
2021/08/02 04:58:32;;;;;;;8.20;8.00;;;24.40;95.70;;;;;;3526771;40;20463;-56
2021/08/02 05:00:59;;;;;;;8.70;8.50;;;24.40;95.70;;;;;;3527874;40;20774;-59
2021/08/02 05:03:26;;;;;;;8.70;8.50;;;24.40;95.70;;;;;;3528457;40;20466;-57
2021/08/02 05:05:54;;;;;;;8.40;8.20;;;24.40;95.70;;;;;;3528231;40;20556;-57
2021/08/02 05:08:22;;;;;;;8.90;8.70;;;24.40;95.70;;;;;;3526263;40;20581;-58
2021/08/02 05:10:51;;;;;;;8.53;8.33;;;24.40;95.70;;;;;;3525037;40;20462;-58
2021/08/02 05:13:18;;;;;;;8.50;8.30;;;24.40;95.70;;;;;;3525115;40;20464;-59
2021/08/02 05:15:46;;;;;;;8.50;8.30;;;24.40;95.70;;;;;;3527196;40;20815;-58
2021/08/02 05:18:14;;;;;;;8.60;8.40;;;24.40;95.70;;;;;;3524485;40;20473;-58
2021/08/02 05:20:42;;;;;;;8.33;8.13;;;24.40;95.70;;;;;;3525250;40;20676;-58
2021/08/02 05:23:10;;;;;;;8.57;8.37;;;24.40;95.70;;;;;;3526135;40;20716;-59
2021/08/02 05:25:37;;;;;;;8.60;8.40;;;24.40;95.70;;;;;;3524118;40;20577;-56
2021/08/02 05:28:06;;;;;;;8.50;8.30;;;24.40;95.70;;;;;;3523311;40;20486;-57
2021/08/02 05:30:33;;;;;;;8.57;8.37;;;24.40;95.70;;;;;;3524116;40;20471;-59
2021/08/02 05:33:00;;;;;;;8.40;8.20;;;24.40;95.70;;;;;;3525042;40;20482;-57
2021/08/02 05:35:28;;;;;;;8.53;8.33;;;24.40;95.70;;;;;;3521302;40;21105;-59
2021/08/02 05:37:55;;;;;;;8.67;8.47;;;24.40;95.70;;;;;;3521875;40;20459;-60
2021/08/02 05:40:23;;;;;;;8.47;8.27;;;24.40;95.70;;;;;;3521323;40;20564;-58
2021/08/02 05:42:50;;;;;;;8.87;8.67;;;24.40;95.70;;;;;;3522462;40;20861;-59
2021/08/02 05:45:19;;;;;;;9.00;8.80;;;24.40;95.70;;;;;;3521126;40;20697;-58
2021/08/02 05:47:46;;;;;;;8.80;8.60;;;24.40;95.70;;;;;;3520163;40;20763;-58
2021/08/02 05:50:14;;;;;;;8.43;8.23;;;24.40;95.70;;;;;;3519280;40;20526;-59
2021/08/02 05:52:42;;;;;;;8.37;8.17;;;24.40;95.70;;;;;;3520857;40;20583;-58
2021/08/02 05:55:11;;;;;;;8.00;7.80;;;24.40;95.70;;;;;;3520638;40;20501;-59
2021/08/02 05:57:38;;;;;;;8.00;7.80;;;24.40;95.70;;;;;;3521017;40;20611;-58
2021/08/02 06:00:07;;;;;;;8.50;8.30;;;24.40;95.70;;;;;;3517192;40;20518;-59
2021/08/02 06:02:41;;;;;;;8.40;8.20;;;24.40;95.70;;;;;;3517422;40;20958;-59
2021/08/02 06:05:09;;;;;;;8.60;8.40;;;24.40;95.70;;;;;;3515851;40;20705;-58
2021/08/02 06:07:41;;;;;;;8.37;8.17;;;24.40;95.70;;;;;;3517176;40;20697;-58
2021/08/02 06:10:10;;;;;;;7.80;7.60;;;24.40;95.70;;;;;;3514307;40;20767;-58
2021/08/02 06:12:38;;;;;;;8.90;8.70;;;24.40;95.70;;;;;;3515419;40;20463;-59
2021/08/02 06:15:06;;;;;;;9.30;9.00;;;24.40;95.70;;;;;;3512467;40;20538;-58
2021/08/02 06:17:34;;;;;;;9.33;9.03;;;24.40;95.70;;;;;;3514765;40;20679;-57
2021/08/02 06:20:03;;;;;;;9.30;9.10;;;24.40;95.70;;;;;;3514476;40;20489;-59
2021/08/02 06:22:31;;;;;;;9.57;9.30;;;24.40;95.70;;;;;;3515636;40;20507;-56
2021/08/02 06:24:58;;;;;;;9.40;9.20;;;24.40;95.70;;;;;;3515818;40;20811;-58
2021/08/02 06:27:30;;;;;;;9.70;9.40;;;24.40;95.70;;;;;;3513469;40;20490;-58
2021/08/02 06:29:57;;;;;;;9.00;8.80;;;24.40;95.70;;;;;;3513246;40;20913;-57
2021/08/02 06:32:25;;;;;;;9.03;8.83;;;24.40;95.70;;;;;;3513258;40;20515;-58
2021/08/02 06:34:53;;;;;;;8.80;8.60;;;24.40;95.70;;;;;;3513863;40;20488;-57
2021/08/02 06:37:23;;;;;;;8.97;8.77;;;24.40;95.70;;;;;;3513449;40;20475;-58
2021/08/02 06:39:50;;;;;;;9.10;8.80;;;24.40;95.70;;;;;;3513699;40;20676;-58
2021/08/02 06:42:18;;;;;;;8.67;8.47;;;24.40;95.70;;;;;;3512562;40;20754;-57
2021/08/02 06:44:45;;;;;;;10.60;10.20;;;24.40;95.70;;;;;;3516906;40;20496;-59
2021/08/02 06:47:13;;;;;;;11.43;10.90;;;24.00;93.60;;;;;;3518040;40;20485;-57
2021/08/02 06:49:40;;;;;;;11.00;10.43;;;23.40;93.80;;;;;;3516722;40;20466;-57
2021/08/02 06:52:09;;;;;;;11.27;10.47;;;22.80;94.30;;;;;;3513173;40;21372;-57
2021/08/02 06:54:38;;;;;;;10.90;10.50;;;22.40;94.80;;;;;;3516534;40;20482;-58
2021/08/02 06:57:05;;;;;;;10.93;10.43;;;22.00;95.40;;;;;;3518280;40;21232;-58
2021/08/02 06:59:32;;;;;;;11.00;10.60;;;21.80;95.60;;;;;;3518184;40;20646;-58
2021/08/02 07:02:00;;;;;;;10.83;10.17;;;21.70;96.00;;;;;;3515482;40;20514;-59
2021/08/02 07:04:27;;;;;;;10.50;10.10;;;22.00;96.10;;;;;;3517192;40;20454;-58
2021/08/02 07:06:55;;;;;;;10.80;10.30;;;22.30;96.00;;;;;;3518880;40;20474;-59
2021/08/02 07:09:22;;;;;;;11.10;10.27;;;22.60;95.80;;;;;;3517071;40;20545;-59
2021/08/02 07:11:51;;;;;;;10.50;10.10;;;22.80;95.60;;;;;;3515527;40;21204;-59
2021/08/02 07:14:18;;;;;;;11.20;10.50;;;23.10;95.50;;;;;;3516870;40;20443;-58
2021/08/02 07:16:45;;;;;;;10.10;9.70;;;23.20;95.40;;;;;;3518164;40;20474;-59
2021/08/02 07:19:13;;;;;;;11.27;10.40;;;23.40;95.30;;;;;;3517806;40;20502;-57
2021/08/02 07:21:40;;;;;;;10.33;9.93;;;23.40;95.10;;;;;;3517476;40;20569;-59
2021/08/02 07:24:08;;;;;;;10.57;10.17;;;23.50;95.10;;;;;;3516452;40;20516;-58
2021/08/02 07:26:35;;;;;;;10.47;10.00;;;23.60;95.00;;;;;;3517982;40;20485;-59
2021/08/02 07:29:04;;;;;;;11.20;10.70;;;23.70;95.00;;;;;;3518647;40;20494;-59
2021/08/02 07:31:31;;;;;;;11.03;10.53;;;23.70;94.90;;;;;;3516470;40;20478;-58
2021/08/02 07:33:59;;;;;;;11.17;10.40;;;23.80;94.80;;;;;;3516955;40;20463;-58
2021/08/02 07:36:26;;;;;;;11.10;10.60;;;23.80;94.70;;;;;;3518261;40;20471;-58
2021/08/02 07:38:53;;;;;;;12.23;11.73;;;23.90;94.70;;;;;;3516252;40;20534;-58
2021/08/02 07:41:22;;;;;;;12.07;11.47;;;23.90;94.60;;;;;;3517173;40;20500;-57
2021/08/02 07:43:50;;;;;;;11.67;11.17;;;23.90;94.60;;;;;;3515066;40;20451;-58
2021/08/02 07:46:18;;;;;;;11.13;10.63;;;24.00;94.60;;;;;;3515984;40;20471;-58
2021/08/02 07:48:45;;;;;;;11.80;11.00;;;24.00;94.60;;;;;;3515939;40;20752;-59
2021/08/02 07:51:13;;;;;;;11.43;10.83;;;24.00;94.40;;;;;;3515090;40;20518;-59
2021/08/02 07:53:40;;;;;;;11.00;10.50;;;24.00;94.40;;;;;;3515635;40;21179;-58
2021/08/02 07:56:08;;;;;;;10.57;10.17;;;24.00;94.40;;;;;;3515569;40;20465;-60
2021/08/02 07:58:35;;;;;;;10.73;10.33;;;24.00;94.40;;;;;;3516149;40;20458;-60
2021/08/02 08:01:03;;;;;;;11.40;10.93;;;24.00;94.50;;;;;;3513768;40;20462;-58
2021/08/02 08:03:32;;;;;;;11.13;10.73;;;24.10;94.50;;;;;;3515358;40;20928;-59
2021/08/02 08:06:00;;;;;;;12.00;11.17;;;24.10;94.60;;;;;;3515442;40;20479;-58
2021/08/02 08:08:27;;;;;;;11.90;11.20;;;24.10;94.60;;;;;;3514870;40;20573;-59
2021/08/02 08:10:54;;;;;;;10.67;10.20;;;24.10;94.60;;;;;;3516481;40;20515;-59
2021/08/02 08:13:21;;;;;;;11.37;10.87;;;24.10;94.60;;;;;;3518323;40;20470;-58
2021/08/02 08:15:49;;;;;;;12.60;11.80;;;24.10;94.60;;;;;;3514574;40;20663;-57
2021/08/02 08:18:16;;;;;;;11.60;11.10;;;24.10;94.70;;;;;;3514328;40;20464;-58
2021/08/02 08:20:45;;;;;;;10.53;10.10;;;24.10;94.70;;;;;;3514190;40;20471;-59
2021/08/02 08:23:12;;;;;;;11.70;11.20;;;24.10;94.70;;;;;;3515232;40;20462;-59
2021/08/02 08:25:40;;;;;;;12.10;11.50;;;24.20;94.80;;;;;;3514532;40;20495;-58
2021/08/02 08:28:10;;;;;;;11.10;10.70;;;24.20;94.80;;;;;;3514296;40;20467;-58
2021/08/02 08:30:37;;;;;;;11.73;11.23;;;24.20;94.80;;;;;;3514902;40;20447;-58
2021/08/02 08:33:04;;;;;;;12.10;11.50;;;24.20;94.80;;;;;;3514519;40;20475;-58
2021/08/02 08:35:32;;;;;;;11.73;11.23;;;24.20;94.90;;;;;;3515990;40;20522;-58
2021/08/02 08:38:01;;;;;;;12.00;11.47;;;24.20;94.90;;;;;;3518432;40;21162;-59
2021/08/02 08:40:29;;;;;;;11.87;11.37;;;24.20;94.90;;;;;;3517045;40;20486;-59
2021/08/02 08:42:57;;;;;;;12.27;11.67;;;24.20;94.90;;;;;;3513200;40;20497;-58
2021/08/02 08:45:25;;;;;;;11.70;11.20;;;24.20;94.90;;;;;;3516453;40;20464;-59
2021/08/02 08:47:54;;;;;;;11.43;10.97;;;24.20;95.00;;;;;;3516200;40;20459;-58
2021/08/02 08:50:21;;;;;;;11.80;11.20;;;24.20;95.00;;;;;;3516109;40;20465;-58
2021/08/02 08:52:51;;;;;;;11.10;10.60;;;24.20;95.00;;;;;;3518266;40;20478;-59
2021/08/02 08:55:20;;;;;;;10.97;10.47;;;24.20;95.30;;;;;;3515090;40;20506;-59
2021/08/02 08:57:47;;;;;;;12.67;11.97;;;24.20;95.00;;;;;;3514949;40;20974;-58
2021/08/02 09:00:22;;;;;;;11.67;11.17;;;24.20;95.00;;;;;;3514360;40;20458;-59
2021/08/02 09:02:51;;;;;;;11.27;10.70;;;24.20;95.00;;;;;;3516778;40;20762;-60
2021/08/02 09:05:19;;;;;;;12.87;12.27;;;24.20;95.10;;;;;;3516593;40;20475;-60
2021/08/02 09:07:47;;;;;;;11.67;11.17;;;24.20;95.10;;;;;;3514676;40;20510;-58
2021/08/02 09:10:16;;;;;;;11.40;10.93;;;24.30;95.10;;;;;;3514901;40;20469;-61
2021/08/02 09:12:52;;;;;;;10.70;10.00;;;24.20;94.50;;;;;;3516229;40;21176;-62
2021/08/02 09:15:34;;;;;;;10.13;9.67;;;24.10;93.70;;;;;;3516801;40;20488;-61
2021/08/02 09:18:03;;;;;;;10.33;9.83;;;24.00;93.30;;;;;;3515927;40;20529;-62
2021/08/02 09:20:31;;;;;;;11.57;11.03;;;23.90;93.00;;;;;;3514695;40;20461;-62
2021/08/02 09:23:07;;;;;;;11.80;10.87;;;23.80;93.30;;;;;;3514311;40;21707;-61
2021/08/02 09:25:35;;;;;;;12.87;12.17;;;23.70;93.60;;;;;;3515175;40;20494;-61
2021/08/02 09:28:14;;;;;;;11.50;10.90;;;23.70;93.80;;;;;;3516491;40;20482;-61
2021/08/02 09:30:55;;;;;;;12.17;11.67;;;23.80;93.60;;;;;;3514917;40;20837;-60
2021/08/02 09:33:22;;;;;;;10.37;10.07;;;23.70;93.10;;;;;;3516861;40;20532;-61
2021/08/02 09:35:52;;;;;;;9.53;9.13;;;23.70;92.90;;;;;;3517865;40;20439;-60
2021/08/02 09:38:22;;;;;;;11.17;10.60;;;23.60;93.00;;;;;;3517757;40;20517;-60
2021/08/02 09:40:51;;;;;;;9.87;9.43;;;23.60;92.90;;;;;;3516713;40;20518;-61
2021/08/02 09:43:21;;;;;;;11.13;10.47;;;23.60;93.10;;;;;;3518722;40;20523;-61
2021/08/02 09:45:51;;;;;;;9.70;9.30;;;23.70;93.10;;;;;;3517093;40;20465;-61
2021/08/02 09:48:20;;;;;;;10.43;9.93;;;23.70;92.90;;;;;;3517507;40;20908;-62
2021/08/02 09:50:49;;;;;;;10.60;10.20;;;23.80;93.00;;;;;;3515534;40;21477;-62
2021/08/02 09:53:18;;;;;;;9.80;9.50;;;23.80;92.80;;;;;;3505927;40;20497;-63
2021/08/02 09:55:48;;;;;;;10.20;9.57;;;23.80;92.70;;;;;;3516659;40;20463;-63
2021/08/02 09:58:20;;;;;;;10.27;9.97;;;23.90;92.80;;;;;;3518958;40;20454;-63
2021/08/02 10:00:49;;;;;;;9.90;9.60;;;23.80;91.90;;;;;;3518970;40;20732;-62
2021/08/02 10:03:16;;;;;;;10.40;10.10;;;23.80;92.00;;;;;;3517781;40;20445;-63
2021/08/02 10:05:44;;;;;;;11.47;11.07;;;23.90;92.40;;;;;;3517546;40;20491;-63
2021/08/02 10:08:11;;;;;;;10.50;10.00;;;23.90;92.50;;;;;;3517992;40;20494;-61
2021/08/02 10:10:39;;;;;;;10.13;9.77;;;23.90;92.50;;;;;;3519017;40;20522;-61
2021/08/02 10:13:07;;;;;;;10.67;10.00;;;23.90;92.50;;;;;;3518499;40;20609;-61
2021/08/02 10:15:35;;;;;;;10.57;10.17;;;24.00;92.40;;;;;;3517085;40;20535;-60
2021/08/02 10:18:07;;;;;;;10.30;9.90;;;24.00;92.20;;;;;;3519027;40;20473;-60
2021/08/02 10:20:35;;;;;;;10.50;10.10;;;24.00;92.50;;;;;;3519474;40;20575;-60
2021/08/02 10:23:04;;;;;;;9.93;9.50;;;24.00;92.50;;;;;;3515764;40;20498;-60
2021/08/02 10:25:34;;;;;;;10.23;9.83;;;24.00;92.10;;;;;;3517627;40;20912;-60
2021/08/02 10:28:10;;;;;;;10.10;9.50;;;24.00;91.90;;;;;;3515785;40;20721;-60
2021/08/02 10:30:38;;;;;;;11.00;10.50;;;24.00;92.00;;;;;;3514770;40;21175;-61
2021/08/02 10:33:07;;;;;;;10.47;10.10;;;23.90;91.50;;;;;;3517250;40;20459;-60
2021/08/02 10:35:38;;;;;;;10.77;10.37;;;23.90;92.10;;;;;;3517845;40;20457;-61
2021/08/02 10:38:07;;;;;;;10.60;10.20;;;23.90;91.60;;;;;;3517958;40;20470;-61
2021/08/02 10:40:50;;;;;;;10.57;10.00;;;23.90;91.70;;;;;;3516731;40;20459;-61
2021/08/02 10:43:31;;;;;;;11.53;11.13;;;23.90;91.50;;;;;;3516305;40;20469;-61
2021/08/02 10:46:00;;;;;;;11.17;10.77;;;23.90;91.00;;;;;;3519263;40;20491;-61
2021/08/02 10:48:30;;;;;;;11.47;10.93;;;23.90;91.10;;;;;;3519323;40;20639;-61
2021/08/02 10:51:09;;;;;;;10.80;10.30;;;23.90;91.20;;;;;;3517994;40;20475;-61
2021/08/02 10:53:37;;;;;;;12.30;11.60;;;23.90;91.30;;;;;;3518896;40;20506;-61
2021/08/02 10:56:04;;;;;;;11.83;11.33;;;23.90;91.10;;;;;;3519431;40;20505;-61
2021/08/02 10:58:36;;;;;;;11.67;11.27;;;23.90;90.80;;;;;;3518673;40;20463;-61
2021/08/02 11:01:06;;;;;;;10.33;9.87;;;23.80;90.40;;;;;;3517212;40;20459;-61
2021/08/02 11:03:36;;;;;;;10.33;10.03;;;23.80;90.80;;;;;;3519092;40;20494;-61
2021/08/02 11:06:12;;;;;;;10.60;10.20;;;23.80;90.80;;;;;;3515888;40;20928;-58
2021/08/02 11:08:45;;;;;;;11.33;10.83;;;23.80;90.90;;;;;;3516005;40;20524;-59
2021/08/02 11:11:19;;;;;;;11.23;10.80;;;23.80;91.30;;;;;;3519667;40;20909;-59
2021/08/02 11:13:46;;;;;;;11.00;10.60;;;23.90;91.50;;;;;;3518314;40;20478;-59
2021/08/02 11:16:14;;;;;;;9.43;9.13;;;24.00;91.70;;;;;;3517975;40;20881;-59
2021/08/02 11:18:45;;;;;;;10.63;10.23;;;24.00;91.90;;;;;;3516945;40;20498;-60
2021/08/02 11:21:26;;;;;;;10.63;10.23;;;24.00;92.00;;;;;;3517905;40;20509;-59
2021/08/02 11:23:55;;;;;;;11.07;10.57;;;24.10;92.10;;;;;;3515230;40;20533;-59
2021/08/02 11:26:23;;;;;;;11.00;10.50;;;24.10;92.20;;;;;;3518468;40;20440;-59
2021/08/02 11:28:54;;;;;;;10.37;9.97;;;24.10;92.30;;;;;;3517161;40;20469;-59
2021/08/02 11:31:27;;;;;;;11.17;10.60;;;24.10;92.30;;;;;;3515609;40;20629;-59
2021/08/02 11:33:55;;;;;;;10.30;9.90;;;24.20;92.50;;;;;;3510740;40;21640;-59
2021/08/02 11:36:23;;;;;;;10.93;10.53;;;24.20;92.50;;;;;;3514614;40;20510;-60
2021/08/02 11:38:51;;;;;;;10.60;10.20;;;24.20;92.50;;;;;;3515467;40;20507;-59
2021/08/02 11:41:29;;;;;;;10.43;10.00;;;24.20;92.60;;;;;;3518786;40;20936;-60
2021/08/02 11:43:58;;;;;;;11.03;10.53;;;24.20;92.70;;;;;;3516974;40;20457;-60
2021/08/02 11:46:26;;;;;;;11.17;10.63;;;24.20;92.70;;;;;;3519338;40;20465;-58
2021/08/02 11:48:55;;;;;;;11.50;11.00;;;24.20;92.70;;;;;;3517652;40;20503;-60
2021/08/02 11:51:23;;;;;;;11.43;11.03;;;24.20;92.80;;;;;;3517502;40;21030;-59
2021/08/02 11:53:50;;;;;;;12.17;11.67;;;24.20;92.80;;;;;;3519540;40;20454;-58
2021/08/02 11:56:18;;;;;;;11.40;10.90;;;24.20;92.90;;;;;;3517490;40;20468;-59
2021/08/02 11:58:46;;;;;;;11.87;11.43;;;24.20;92.90;;;;;;3509366;40;20478;-59
2021/08/02 12:01:15;;;;;;;11.63;11.07;;;24.20;92.90;;;;;;3516210;40;21016;-60
2021/08/02 12:03:47;;;;;;;10.90;10.50;;;24.20;93.00;;;;;;3506290;40;20490;-59
2021/08/02 12:06:16;;;;;;;11.00;10.50;;;24.20;93.10;;;;;;3526512;40;20569;-56
2021/08/02 12:08:55;;;;;;;11.50;11.00;;;24.20;93.10;;;;;;3506075;40;20510;-58
2021/08/02 12:11:23;;;;;;;11.80;11.30;;;24.20;93.10;;;;;;3516381;40;21046;-58
2021/08/02 12:13:53;;;;;;;11.43;10.93;;;24.20;93.20;;;;;;3517641;40;20447;-59
2021/08/02 12:16:28;;;;;;;11.20;10.70;;;24.20;93.50;;;;;;3525746;40;20545;-59
2021/08/02 12:19:13;;;;;;;11.60;11.00;;;24.20;93.20;;;;;;3516606;40;20469;-59
2021/08/02 12:21:42;;;;;;;11.00;10.53;;;24.20;93.30;;;;;;3518286;40;20608;-59
2021/08/02 12:24:11;;;;;;;10.67;10.17;;;24.20;93.30;;;;;;3516796;40;20463;-59
2021/08/02 12:26:48;;;;;;;11.70;11.00;;;24.30;93.40;;;;;;3516689;40;20478;-60
2021/08/02 12:29:22;;;;;;;11.10;10.60;;;24.20;93.30;;;;;;3517921;40;20517;-58
2021/08/02 12:31:56;;;;;;;11.30;10.70;;;24.30;93.40;;;;;;3517622;40;21242;-59
2021/08/02 12:34:24;;;;;;;11.10;10.70;;;24.20;93.40;;;;;;3516135;40;20457;-59
2021/08/02 12:36:55;;;;;;;10.60;10.20;;;24.20;93.40;;;;;;3514099;40;20498;-60
2021/08/02 12:39:22;;;;;;;11.43;10.90;;;24.30;93.50;;;;;;3517672;40;20514;-59
2021/08/02 12:41:50;;;;;;;11.00;10.43;;;24.20;93.50;;;;;;3518570;40;20469;-59
2021/08/02 12:44:17;;;;;;;10.50;9.97;;;24.20;93.50;;;;;;3518782;40;20507;-58
2021/08/02 12:46:44;;;;;;;10.50;10.10;;;24.20;93.50;;;;;;3516137;40;20481;-60
2021/08/02 12:49:12;;;;;;;10.47;10.00;;;24.30;93.60;;;;;;3509523;40;20487;-59
2021/08/02 12:51:39;;;;;;;11.13;10.63;;;24.30;93.60;;;;;;3515795;40;20573;-59